Possum Fork, Arkansas
Current Conditions -  °F | °C
As of 2:26 PM on Sunday 23 Nov 2014 (Local Time) from KGLH Reporting Station
Overcast Overcast  
Wind Chill: 63°   Ceiling: 1100
Heat Index: 63°   Visibility: 10mi
Dew Point: 60°   Wind: 16mph
Humidity: 90%   Direction: 240°WSW
Pressure: 29.43"   Gusts: NA
Location:  33.7652°N, 91.2745°W
Report Text: KGLH 232026Z AUTO 24014KT 10SM BKN011 BKN025 OVC060 17/16 A2943 RMK AO2 P0001 T01720156 $
Loading
Personal Weather Stations






























Interactive Weather Map New forecast layout! Learn more

10-Day Weather Forecast

Advertisements
Track Severe Weather on mobile